Brasie Corners, New York
Current Conditions -  °F | °C
As of 2:30 AM on Sunday 23 Nov 2014 (Local Time) from KGTB Reporting Station
Drizzle Drizzle  
Wind Chill:   Ceiling: 500
Heat Index:   Visibility: 4mi
Dew Point:   Wind: 14mph
Humidity: 100%   Direction: 240°WSW
Pressure: 29.96"   Gusts: 20mph
Location:  44.3309°N, 75.4775°W
Report Text: KGTB 230730Z AUTO 24012G17KT 4SM R03/4500FT -DZ BR OVC005 05/05 A2996 RMK AO2 VIS 2 1/2 RWY21 RAE0724DZB0706E0707B0724
Loading
Personal Weather Stations






























Interactive Weather Map New forecast layout! Learn more

10-Day Weather Forecast

Advertisements
Track Severe Weather on mobile